Barry Silverton — WDI2338 — position and weather

sailwx.info

Track history (hours):
 
Tides and Currents Weather Stations Pressure Air Temp Water Temp Dewpoint Dewpoint Depression Visibility Wind Speed Wind Dir Waves Ship Positions

Barry Silverton

Owner: Harley Marine Services, Inc, Seattle, WA. More information available from US FCC via Universal Licensing System and Coast Guard Vessel Documentation Center.

Last reported at 2017-Nov-19 17:23 UTC. Time now 2017-Nov-20 02:03 UTC.
Position N 42°14' W 070°58'.

Length 178 m; draft 4.3 m.

Type: Ship. MMSI: 367677130.

Date/timePositionNaut miles runAvg speedWind from/ knotsBaromVisibWave heightAir tempDewpointWater temp
2017-Nov-19 17:23N 42°14' W 070°58'3 4.0
2017-Nov-19 16:41N 42°17' W 070°56'1 7.4
2017-Nov-19 16:29N 42°18' W 070°55'4 6.1
2017-Nov-19 15:50N 42°20' W 070°51'2 7.1
2017-Nov-19 15:30N 42°22' W 070°51'4 8.3
2017-Nov-19 15:00N 42°21' W 070°56'4 7.1
2017-Nov-19 14:30N 42°21' W 071°01'1 2.5
2017-Nov-19 14:00N 42°22' W 071°02'0 0.0
2017-Nov-19 13:27N 42°22' W 071°02'0 0.0
2017-Nov-19 13:00N 42°22' W 071°02'0 0.1
2017-Nov-19 12:24N 42°22' W 071°02'0 0.0
2017-Nov-19 11:54N 42°22' W 071°02'0 0.0
2017-Nov-19 11:27N 42°22' W 071°02'0 0.0
2017-Nov-19 10:18N 42°22' W 071°02'0 0.0
2017-Nov-19 10:00N 42°22' W 071°02'0 0.0
2017-Nov-19 09:30N 42°22' W 071°02'0 0.1
2017-Nov-19 08:57N 42°22' W 071°02'0 0.0
2017-Nov-19 08:30N 42°22' W 071°02'0 0.0
2017-Nov-19 07:48N 42°22' W 071°02'0 0.1
2017-Nov-19 07:27N 42°22' W 071°02'0 0.0
2017-Nov-19 06:57N 42°21' W 071°02'0 0.0
2017-Nov-19 06:30N 42°21' W 071°02'0 0.0
2017-Nov-19 06:00N 42°21' W 071°02'0 0.0
2017-Nov-19 05:30N 42°21' W 071°02'0 0.1
2017-Nov-19 05:00N 42°22' W 071°02'0 0.1
2017-Nov-19 04:30N 42°22' W 071°02'0 0.1
2017-Nov-19 04:00N 42°22' W 071°02'0 0.0
2017-Nov-19 03:30N 42°22' W 071°02'0 0.0
2017-Nov-19 03:00N 42°22' W 071°02'0 0.0
2017-Nov-19 02:30N 42°22' W 071°02'0 0.4
2017-Nov-19 02:00N 42°21' W 071°02'3 6.0
2017-Nov-19 01:30N 42°20' W 070°58'5 9.4
2017-Nov-19 01:00N 42°23' W 070°53'5 9.4
2017-Nov-19 00:30N 42°21' W 070°47'510.1
2017-Nov-19 00:00N 42°18' W 070°42'510.1
2017-Nov-18 23:30N 42°14' W 070°37'5 9.8
2017-Nov-18 23:00N 42°10' W 070°33'5 9.7
2017-Nov-18 22:30N 42°06' W 070°31'910.0
2017-Nov-18 21:39N 41°57' W 070°28'77 7.9
2017-Nov-18 11:54N 41°15' W 071°55'9 8.7
2017-Nov-18 10:51N 41°14' W 072°07'3 9.4
2017-Nov-18 10:30N 41°14' W 072°11'5 9.9
2017-Nov-18 10:00N 41°12' W 072°17'510.3
2017-Nov-18 09:30N 41°10' W 072°24'510.2
2017-Nov-18 09:00N 41°08' W 072°30'510.3
2017-Nov-18 08:30N 41°07' W 072°37'510.4
2017-Nov-18 08:00N 41°06' W 072°44'47 9.8
2017-Nov-18 03:13N 40°53' W 073°43'2 9.5
2017-Nov-18 03:00N 40°51' W 073°45'4 7.6
2017-Nov-18 02:27N 40°48' W 073°49'4 9.2
2017-Nov-18 02:00N 40°48' W 073°54'4 7.7
2017-Nov-18 01:30N 40°45' W 073°58'3 5.3
2017-Nov-18 01:00N 40°42' W 073°59'3 6.3
2017-Nov-18 00:30N 40°41' W 074°02'3 6.4
2017-Nov-18 00:00N 40°39' W 074°06'4 7.0
2017-Nov-17 23:30N 40°39' W 074°10'3 5.4
2017-Nov-17 22:59N 40°36' W 074°12'0 0.8
2017-Nov-17 22:30N 40°36' W 074°12'0 0.0
2017-Nov-17 21:57N 40°36' W 074°12'0 0.1
2017-Nov-17 21:08N 40°36' W 074°12'0 0.0
2017-Nov-17 21:00N 40°36' W 074°12'0 0.0
2017-Nov-17 20:30N 40°36' W 074°12'0 0.0
2017-Nov-17 20:00N 40°36' W 074°12'0 0.0
2017-Nov-17 19:29N 40°36' W 074°12'0 0.0
2017-Nov-17 18:58N 40°36' W 074°12'0 0.0
2017-Nov-17 18:29N 40°36' W 074°12'0 0.0
2017-Nov-17 18:00N 40°36' W 074°12'0 0.0
2017-Nov-17 17:30N 40°36' W 074°12'1 1.2
2017-Nov-17 17:00N 40°37' W 074°12'4 7.8
2017-Nov-17 16:30N 40°39' W 074°08'1 1.3
2017-Nov-17 15:59N 40°39' W 074°07'0 0.0
2017-Nov-17 15:29N 40°39' W 074°07'0 0.0
2017-Nov-17 14:59N 40°39' W 074°07'0 0.0
2017-Nov-17 14:29N 40°39' W 074°07'0 0.0
2017-Nov-17 13:59N 40°39' W 074°07'0 0.0
2017-Nov-17 13:29N 40°39' W 074°07'0 0.1
2017-Nov-17 12:58N 40°39' W 074°07'0 0.0
2017-Nov-17 12:28N 40°39' W 074°07'0 0.0
2017-Nov-17 11:58N 40°39' W 074°07'0 0.0
2017-Nov-17 11:28N 40°39' W 074°07'0 0.0
2017-Nov-17 10:58N 40°39' W 074°07'0 0.0
2017-Nov-17 10:28N 40°39' W 074°07'0 0.0
2017-Nov-17 09:58N 40°39' W 074°07'0 0.0
2017-Nov-17 09:28N 40°39' W 074°07'0 0.0
2017-Nov-17 08:58N 40°39' W 074°07'0 0.0
2017-Nov-17 08:28N 40°39' W 074°07'0 0.0
2017-Nov-17 07:58N 40°39' W 074°07'0 0.0
2017-Nov-17 07:28N 40°39' W 074°07'0 0.0
2017-Nov-17 06:58N 40°39' W 074°07'0 0.0
2017-Nov-17 06:28N 40°39' W 074°07'0 0.0
2017-Nov-17 05:58N 40°39' W 074°07'2 4.0
2017-Nov-17 05:30N 40°39' W 074°09'3 6.1
2017-Nov-17 05:00N 40°36' W 074°12'0 0.8
2017-Nov-17 04:30N 40°36' W 074°12'0 0.0
2017-Nov-17 03:48N 40°36' W 074°12'0 0.0
2017-Nov-17 03:24N 40°36' W 074°12'0 0.0
2017-Nov-17 02:48N 40°36' W 074°12'0 0.0
2017-Nov-17 02:30N 40°36' W 074°12'0 0.0
2017-Nov-17 01:54N 40°36' W 074°12'0 0.0
2017-Nov-17 01:30N 40°36' W 074°12'0 0.0
2017-Nov-17 00:54N 40°36' W 074°12'0 0.1
2017-Nov-16 23:50N 40°36' W 074°12'0 0.5
2017-Nov-16 23:30N 40°36' W 074°12'1 2.3
2017-Nov-16 23:00N 40°37' W 074°12'3 5.9
2017-Nov-16 22:29N 40°39' W 074°09'4 7.7
2017-Nov-16 22:00N 40°39' W 074°04'1 1.9
2017-Nov-16 21:30N 40°39' W 074°03'0 0.3
2017-Nov-16 21:00N 40°39' W 074°03'1 2.2
2017-Nov-16 20:30N 40°39' W 074°02'4 7.0
2017-Nov-16 20:00N 40°42' W 073°59'4 8.1
2017-Nov-16 19:30N 40°46' W 073°57'3 6.8
2017-Nov-16 19:00N 40°48' W 073°53'3 5.3
2017-Nov-16 18:30N 40°48' W 073°50'2 4.3
2017-Nov-16 18:00N 40°49' W 073°47'2 4.7
2017-Nov-16 17:29N 40°51' W 073°45'2 4.8
2017-Nov-16 17:00N 40°53' W 073°43'4 6.1
2017-Nov-16 16:23N 40°55' W 073°39'44 7.3
2017-Nov-16 10:21N 41°06' W 072°43'411.2
2017-Nov-16 10:00N 41°07' W 072°38'611.4
2017-Nov-16 09:30N 41°09' W 072°30'510.8
2017-Nov-16 09:00N 41°10' W 072°24'510.1
2017-Nov-16 08:30N 41°12' W 072°17'5 9.4
2017-Nov-16 08:00N 41°14' W 072°11'93 6.3
2017-Nov-15 17:15N 42°11' W 070°34'2 7.6
2017-Nov-15 17:00N 42°12' W 070°35'4 7.1
2017-Nov-15 16:30N 42°15' W 070°38'4 8.3
2017-Nov-15 16:00N 42°18' W 070°42'4 8.1
2017-Nov-15 15:30N 42°19' W 070°48'4 7.9
2017-Nov-15 15:00N 42°19' W 070°53'4 6.8
2017-Nov-15 14:26N 42°16' W 070°56'2 4.6
2017-Nov-15 13:55N 42°14' W 070°58'0 0.0
2017-Nov-15 11:03N 42°14' W 070°58'0 0.0
2017-Nov-15 10:51N 42°14' W 070°58'0 0.0
2017-Nov-15 05:51N 42°14' W 070°58'0 0.0
2017-Nov-15 05:12N 42°14' W 070°58'0 0.0
2017-Nov-15 04:39N 42°14' W 070°58'0 0.0
2017-Nov-15 04:24N 42°14' W 070°58'0 0.0
2017-Nov-15 03:57N 42°14' W 070°58'0 0.0
2017-Nov-15 03:30N 42°14' W 070°58'0 0.0
2017-Nov-15 02:57N 42°14' W 070°58'0 0.0
2017-Nov-15 01:21N 42°14' W 070°58'0 0.0
2017-Nov-14 23:33N 42°14' W 070°58'0 0.0
2017-Nov-14 23:30N 42°14' W 070°58'0 0.0
2017-Nov-14 15:32N 42°14' W 070°58'0 0.0
2017-Nov-14 15:27N 42°14' W 070°58'0 0.0
2017-Nov-14 14:48N 42°14' W 070°58'0 0.0
2017-Nov-14 14:30N 42°14' W 070°58'3 2.1
2017-Nov-14 13:12N 42°16' W 070°56'1 3.8
2017-Nov-14 13:00N 42°17' W 070°56'4 4.3
2017-Nov-14 12:07N 42°19' W 070°52'1 4.8
2017-Nov-14 11:50N 42°20' W 070°50'3 7.8
2017-Nov-14 11:30N 42°22' W 070°51'4 7.3
2017-Nov-14 11:01N 42°22' W 070°55'3 4.8
2017-Nov-14 10:28N 42°20' W 070°59'0 0.0
2017-Nov-14 09:49N 42°20' W 070°59'0 0.2
2017-Nov-14 09:13N 42°20' W 070°59'0 0.0
2017-Nov-14 08:58N 42°20' W 070°59'0 0.0
2017-Nov-14 08:25N 42°20' W 070°59'0 0.0
2017-Nov-14 07:58N 42°20' W 070°59'0 0.1
2017-Nov-14 07:28N 42°20' W 070°59'0 0.1
2017-Nov-14 06:22N 42°20' W 070°58'0 0.1
2017-Nov-14 05:58N 42°20' W 070°58'0 0.0
2017-Nov-14 05:07N 42°20' W 070°58'0 0.0
2017-Nov-14 04:55N 42°20' W 070°58'0 0.0
2017-Nov-14 02:49N 42°20' W 070°58'0 0.1
2017-Nov-14 02:28N 42°20' W 070°58'0 0.0
2017-Nov-14 01:55N 42°20' W 070°58'0 0.0
2017-Nov-14 01:26N 42°20' W 070°58'0 0.0
2017-Nov-14 01:00N 42°20' W 070°58'0 0.0
2017-Nov-14 00:29N 42°20' W 070°59'0 0.0
2017-Nov-14 00:00N 42°20' W 070°59'1 0.8
2017-Nov-13 23:16N 42°20' W 070°58'1 5.5
2017-Nov-13 23:00N 42°21' W 070°56'3 6.4
2017-Nov-13 22:28N 42°23' W 070°52'4 8.6
2017-Nov-13 22:00N 42°21' W 070°48'159 7.0
2017-Nov-12 23:15N 40°52' W 073°44'2 9.3
2017-Nov-12 23:00N 40°50' W 073°46'3 6.9
2017-Nov-12 22:30N 40°48' W 073°50'4 8.4
2017-Nov-12 22:00N 40°47' W 073°55'5 9.2
2017-Nov-12 21:30N 40°43' W 073°58'5 9.4
2017-Nov-12 21:01N 40°40' W 074°03'1 1.9
2017-Nov-12 20:29N 40°39' W 074°03'0 0.0
2017-Nov-12 19:59N 40°39' W 074°03'0 0.0
2017-Nov-12 19:29N 40°39' W 074°03'0 0.0
2017-Nov-12 19:01N 40°39' W 074°03'0 0.2
2017-Nov-12 18:30N 40°39' W 074°03'0 0.1
2017-Nov-12 18:01N 40°39' W 074°03'0 0.3
2017-Nov-12 17:30N 40°39' W 074°03'3 6.4
2017-Nov-12 17:00N 40°39' W 074°07'3 6.3
2017-Nov-12 16:30N 40°38' W 074°11'1 2.2
2017-Nov-12 16:00N 40°38' W 074°12'0 0.0
2017-Nov-12 15:29N 40°38' W 074°12'0 0.0
2017-Nov-12 14:29N 40°38' W 074°12'0 0.0
2017-Nov-12 13:56N 40°38' W 074°12'0 0.0
2017-Nov-12 13:30N 40°38' W 074°12'0 0.0
2017-Nov-12 13:00N 40°38' W 074°12'0 0.0
2017-Nov-12 12:27N 40°38' W 074°12'0 0.0
2017-Nov-12 11:57N 40°38' W 074°12'0 0.0
2017-Nov-12 11:29N 40°38' W 074°12'0 0.0
2017-Nov-12 10:59N 40°38' W 074°12'0 0.0
2017-Nov-12 10:20N 40°38' W 074°12'0 0.0
2017-Nov-12 10:00N 40°38' W 074°12'0 0.0
2017-Nov-12 09:17N 40°38' W 074°12'0 0.0
2017-Nov-12 08:57N 40°38' W 074°12'0 0.0
2017-Nov-12 08:29N 40°38' W 074°12'0 0.0
2017-Nov-12 08:00N 40°38' W 074°12'0 0.0
2017-Nov-12 07:29N 40°38' W 074°12'0 0.0
2017-Nov-12 07:00N 40°38' W 074°12'0 0.0
2017-Nov-12 06:23N 40°38' W 074°12'0 0.0
2017-Nov-12 05:53N 40°38' W 074°12'0 0.0
2017-Nov-12 04:35N 40°38' W 074°12'0 0.0
2017-Nov-12 04:23N 40°38' W 074°12'0 0.0
2017-Nov-12 03:59N 40°38' W 074°12'0 0.0
2017-Nov-12 03:29N 40°38' W 074°12'0 0.0
2017-Nov-12 02:59N 40°38' W 074°12'0 0.0
2017-Nov-12 02:26N 40°38' W 074°12'0 0.0
2017-Nov-12 01:56N 40°38' W 074°12'0 0.0
2017-Nov-12 01:24N 40°38' W 074°12'0 0.0
2017-Nov-12 00:54N 40°38' W 074°12'0 0.0
2017-Nov-12 00:29N 40°38' W 074°12'0 0.0
2017-Nov-12 00:00N 40°38' W 074°12'0 0.0
2017-Nov-11 23:29N 40°38' W 074°12'0 0.0
2017-Nov-11 22:53N 40°38' W 074°12'0 0.0
2017-Nov-11 22:29N 40°38' W 074°12'0 0.0
2017-Nov-11 21:59N 40°38' W 074°12'0 0.0
2017-Nov-11 21:29N 40°38' W 074°12'0 0.0
2017-Nov-11 20:53N 40°38' W 074°12'0 0.0
2017-Nov-11 16:17N 40°38' W 074°12'0 0.0
2017-Nov-11 15:59N 40°38' W 074°12'0 0.0
2017-Nov-11 15:23N 40°38' W 074°12'0 0.0
2017-Nov-11 14:59N 40°38' W 074°12'0 0.0
2017-Nov-11 14:29N 40°38' W 074°12'0 0.0
2017-Nov-11 13:59N 40°38' W 074°12'0 0.0
2017-Nov-11 13:17N 40°38' W 074°12'0 0.0
2017-Nov-11 11:38N 40°38' W 074°12'0 0.0
2017-Nov-11 10:08N 40°38' W 074°12'0 0.0
2017-Nov-11 09:56N 40°38' W 074°12'0 0.0
2017-Nov-11 09:26N 40°38' W 074°12'0 0.0
2017-Nov-11 08:56N 40°38' W 074°12'0 0.0
2017-Nov-11 07:53N 40°38' W 074°12'0 0.0
2017-Nov-11 07:29N 40°38' W 074°12'0 0.0
2017-Nov-11 06:59N 40°38' W 074°12'0 0.0
2017-Nov-11 06:23N 40°38' W 074°12'0 0.0
2017-Nov-11 06:00N 40°38' W 074°12'0 0.0
2017-Nov-11 05:30N 40°38' W 074°12'0 0.0
2017-Nov-11 04:59N 40°38' W 074°12'0 0.1
2017-Nov-11 04:30N 40°38' W 074°12'0 0.0
2017-Nov-11 04:00N 40°38' W 074°12'1 1.8
2017-Nov-11 03:30N 40°38' W 074°12'3 6.4
2017-Nov-11 03:00N 40°39' W 074°07'3 6.4
2017-Nov-11 02:30N 40°38' W 074°03'2 4.8
2017-Nov-11 02:00N 40°36' W 074°02'1 2.3
2017-Nov-11 01:30N 40°35' W 074°01'0 0.0
2017-Nov-11 00:57N 40°35' W 074°01'0 0.0
2017-Nov-11 00:30N 40°35' W 074°01'0 0.0
2017-Nov-11 00:00N 40°35' W 074°01'0 0.0
2017-Nov-10 23:27N 40°35' W 074°01'0 0.0
2017-Nov-10 23:00N 40°35' W 074°01'0 0.0
2017-Nov-10 22:30N 40°35' W 074°01'0 0.0
2017-Nov-10 21:57N 40°35' W 074°01'0 0.0
2017-Nov-10 21:30N 40°35' W 074°01'0 0.0
2017-Nov-10 21:00N 40°35' W 074°01'0 0.1
2017-Nov-10 20:31N 40°35' W 074°01'0 0.0
2017-Nov-10 20:01N 40°35' W 074°01'1 2.5
2017-Nov-10 19:31N 40°36' W 074°02'4 8.1
2017-Nov-10 19:00N 40°39' W 074°06'2 4.4
2017-Nov-10 18:28N 40°38' W 074°09'0 0.0
2017-Nov-10 17:52N 40°38' W 074°09'0 0.0
2017-Nov-10 17:25N 40°38' W 074°09'0 0.0
2017-Nov-10 16:58N 40°38' W 074°09'0 0.0
2017-Nov-10 16:28N 40°38' W 074°09'0 0.0
2017-Nov-10 15:55N 40°38' W 074°09'0 0.0
2017-Nov-10 15:25N 40°38' W 074°09'0 0.0
2017-Nov-10 14:58N 40°38' W 074°09'0 0.0
2017-Nov-10 14:28N 40°38' W 074°09'0 0.0
2017-Nov-10 13:58N 40°38' W 074°09'0 0.0
2017-Nov-10 13:28N 40°38' W 074°09'0 0.0
2017-Nov-10 12:58N 40°38' W 074°09'0 0.0
2017-Nov-10 12:25N 40°38' W 074°09'0 0.0
2017-Nov-10 11:58N 40°38' W 074°09'0 0.0
2017-Nov-10 11:28N 40°38' W 074°09'0 0.0
2017-Nov-10 10:55N 40°38' W 074°09'0 0.0
2017-Nov-10 10:25N 40°38' W 074°09'0 0.0
2017-Nov-10 09:58N 40°38' W 074°09'0 0.0
2017-Nov-10 09:28N 40°38' W 074°09'0 0.0
2017-Nov-10 08:58N 40°38' W 074°09'0 0.0
2017-Nov-10 08:28N 40°38' W 074°09'0 0.0
2017-Nov-10 07:58N 40°38' W 074°09'0 0.0
2017-Nov-10 07:28N 40°38' W 074°09'0 0.0
2017-Nov-10 06:58N 40°38' W 074°09'0 0.0
2017-Nov-10 06:28N 40°38' W 074°09'0 0.0
2017-Nov-10 05:58N 40°38' W 074°09'0 0.0
2017-Nov-10 05:28N 40°38' W 074°09'0 0.0
2017-Nov-10 04:58N 40°38' W 074°09'0 0.0
2017-Nov-10 04:28N 40°38' W 074°09'0 0.0
2017-Nov-10 03:58N 40°38' W 074°09'0 0.0
2017-Nov-10 03:28N 40°38' W 074°09'0 0.0
2017-Nov-10 02:58N 40°38' W 074°09'0 0.0
2017-Nov-10 02:28N 40°38' W 074°09'0 0.0
2017-Nov-10 01:58N 40°38' W 074°09'0 0.0
2017-Nov-10 01:28N 40°38' W 074°09'0 0.0
2017-Nov-10 00:58N 40°38' W 074°09'0 0.0
2017-Nov-10 00:28N 40°38' W 074°09'0 0.0
2017-Nov-09 23:55N 40°38' W 074°09'0 0.0
2017-Nov-09 23:28N 40°38' W 074°09'1 2.8
2017-Nov-09 23:00N 40°39' W 074°08'4 7.3
2017-Nov-09 22:30N 40°38' W 074°03'3 4.7
2017-Nov-09 21:58N 40°36' W 074°01'0 0.0
2017-Nov-09 21:28N 40°36' W 074°01'0 0.0
2017-Nov-09 20:58N 40°36' W 074°01'0 0.0
2017-Nov-09 20:28N 40°36' W 074°01'0 0.3
2017-Nov-09 20:00N 40°36' W 074°02'3 6.3
2017-Nov-09 19:30N 40°39' W 074°02'4 8.3
2017-Nov-09 19:00N 40°42' W 073°59'4 7.8
2017-Nov-09 18:30N 40°46' W 073°57'3 5.0
2017-Nov-09 17:59N 40°48' W 073°55'2 3.3
2017-Nov-09 17:30N 40°48' W 073°53'  
Track history (hours):
 
Tides and Currents Weather Stations Pressure Air Temp Water Temp Dewpoint Dewpoint Depression Visibility Wind Speed Wind Dir Waves Ship Positions

Barry Silverton

Owner: Harley Marine Services, Inc, Seattle, WA. More information available from US FCC via Universal Licensing System and Coast Guard Vessel Documentation Center.

Last reported at 2017-Nov-19 17:23 UTC. Time now 2017-Nov-20 02:03 UTC.
Position N 42°14' W 070°58'.

Length 178 m; draft 4.3 m.

Type: Ship. MMSI: 367677130.

Date/timePositionNaut miles runAvg speedWind from/ knotsBaromVisibWave heightAir tempDewpointWater temp
2017-Nov-19 17:23N 42°14' W 070°58'3 4.0
2017-Nov-19 16:41N 42°17' W 070°56'1 7.4
2017-Nov-19 16:29N 42°18' W 070°55'4 6.1
2017-Nov-19 15:50N 42°20' W 070°51'2 7.1
2017-Nov-19 15:30N 42°22' W 070°51'4 8.3
2017-Nov-19 15:00N 42°21' W 070°56'4 7.1
2017-Nov-19 14:30N 42°21' W 071°01'1 2.5
2017-Nov-19 14:00N 42°22' W 071°02'0 0.0
2017-Nov-19 13:27N 42°22' W 071°02'0 0.0
2017-Nov-19 13:00N 42°22' W 071°02'0 0.1
2017-Nov-19 12:24N 42°22' W 071°02'0 0.0
2017-Nov-19 11:54N 42°22' W 071°02'0 0.0
2017-Nov-19 11:27N 42°22' W 071°02'0 0.0
2017-Nov-19 10:18N 42°22' W 071°02'0 0.0
2017-Nov-19 10:00N 42°22' W 071°02'0 0.0
2017-Nov-19 09:30N 42°22' W 071°02'0 0.1
2017-Nov-19 08:57N 42°22' W 071°02'0 0.0
2017-Nov-19 08:30N 42°22' W 071°02'0 0.0
2017-Nov-19 07:48N 42°22' W 071°02'0 0.1
2017-Nov-19 07:27N 42°22' W 071°02'0 0.0
2017-Nov-19 06:57N 42°21' W 071°02'0 0.0
2017-Nov-19 06:30N 42°21' W 071°02'0 0.0
2017-Nov-19 06:00N 42°21' W 071°02'0 0.0
2017-Nov-19 05:30N 42°21' W 071°02'0 0.1
2017-Nov-19 05:00N 42°22' W 071°02'0 0.1
2017-Nov-19 04:30N 42°22' W 071°02'0 0.1
2017-Nov-19 04:00N 42°22' W 071°02'0 0.0
2017-Nov-19 03:30N 42°22' W 071°02'0 0.0
2017-Nov-19 03:00N 42°22' W 071°02'0 0.0
2017-Nov-19 02:30N 42°22' W 071°02'0 0.4
2017-Nov-19 02:00N 42°21' W 071°02'3 6.0
2017-Nov-19 01:30N 42°20' W 070°58'5 9.4
2017-Nov-19 01:00N 42°23' W 070°53'5 9.4
2017-Nov-19 00:30N 42°21' W 070°47'510.1
2017-Nov-19 00:00N 42°18' W 070°42'510.1
2017-Nov-18 23:30N 42°14' W 070°37'5 9.8
2017-Nov-18 23:00N 42°10' W 070°33'5 9.7
2017-Nov-18 22:30N 42°06' W 070°31'910.0
2017-Nov-18 21:39N 41°57' W 070°28'77 7.9
2017-Nov-18 11:54N 41°15' W 071°55'9 8.7
2017-Nov-18 10:51N 41°14' W 072°07'3 9.4
2017-Nov-18 10:30N 41°14' W 072°11'5 9.9
2017-Nov-18 10:00N 41°12' W 072°17'510.3
2017-Nov-18 09:30N 41°10' W 072°24'510.2
2017-Nov-18 09:00N 41°08' W 072°30'510.3
2017-Nov-18 08:30N 41°07' W 072°37'510.4
2017-Nov-18 08:00N 41°06' W 072°44'47 9.8
2017-Nov-18 03:13N 40°53' W 073°43'2 9.5
2017-Nov-18 03:00N 40°51' W 073°45'4 7.6
2017-Nov-18 02:27N 40°48' W 073°49'4 9.2
2017-Nov-18 02:00N 40°48' W 073°54'4 7.7
2017-Nov-18 01:30N 40°45' W 073°58'3 5.3
2017-Nov-18 01:00N 40°42' W 073°59'3 6.3
2017-Nov-18 00:30N 40°41' W 074°02'3 6.4
2017-Nov-18 00:00N 40°39' W 074°06'4 7.0
2017-Nov-17 23:30N 40°39' W 074°10'3 5.4
2017-Nov-17 22:59N 40°36' W 074°12'0 0.8
2017-Nov-17 22:30N 40°36' W 074°12'0 0.0
2017-Nov-17 21:57N 40°36' W 074°12'0 0.1
2017-Nov-17 21:08N 40°36' W 074°12'0 0.0
2017-Nov-17 21:00N 40°36' W 074°12'0 0.0
2017-Nov-17 20:30N 40°36' W 074°12'0 0.0
2017-Nov-17 20:00N 40°36' W 074°12'0 0.0
2017-Nov-17 19:29N 40°36' W 074°12'0 0.0
2017-Nov-17 18:58N 40°36' W 074°12'0 0.0
2017-Nov-17 18:29N 40°36' W 074°12'0 0.0
2017-Nov-17 18:00N 40°36' W 074°12'0 0.0
2017-Nov-17 17:30N 40°36' W 074°12'1 1.2
2017-Nov-17 17:00N 40°37' W 074°12'4 7.8
2017-Nov-17 16:30N 40°39' W 074°08'1 1.3
2017-Nov-17 15:59N 40°39' W 074°07'0 0.0
2017-Nov-17 15:29N 40°39' W 074°07'0 0.0
2017-Nov-17 14:59N 40°39' W 074°07'0 0.0
2017-Nov-17 14:29N 40°39' W 074°07'0 0.0
2017-Nov-17 13:59N 40°39' W 074°07'0 0.0
2017-Nov-17 13:29N 40°39' W 074°07'0 0.1
2017-Nov-17 12:58N 40°39' W 074°07'0 0.0
2017-Nov-17 12:28N 40°39' W 074°07'0 0.0
2017-Nov-17 11:58N 40°39' W 074°07'0 0.0
2017-Nov-17 11:28N 40°39' W 074°07'0 0.0
2017-Nov-17 10:58N 40°39' W 074°07'0 0.0
2017-Nov-17 10:28N 40°39' W 074°07'0 0.0
2017-Nov-17 09:58N 40°39' W 074°07'0 0.0
2017-Nov-17 09:28N 40°39' W 074°07'0 0.0
2017-Nov-17 08:58N 40°39' W 074°07'0 0.0
2017-Nov-17 08:28N 40°39' W 074°07'0 0.0
2017-Nov-17 07:58N 40°39' W 074°07'0 0.0
2017-Nov-17 07:28N 40°39' W 074°07'0 0.0
2017-Nov-17 06:58N 40°39' W 074°07'0 0.0
2017-Nov-17 06:28N 40°39' W 074°07'0 0.0
2017-Nov-17 05:58N 40°39' W 074°07'2 4.0
2017-Nov-17 05:30N 40°39' W 074°09'3 6.1
2017-Nov-17 05:00N 40°36' W 074°12'0 0.8
2017-Nov-17 04:30N 40°36' W 074°12'0 0.0
2017-Nov-17 03:48N 40°36' W 074°12'0 0.0
2017-Nov-17 03:24N 40°36' W 074°12'0 0.0
2017-Nov-17 02:48N 40°36' W 074°12'0 0.0
2017-Nov-17 02:30N 40°36' W 074°12'0 0.0
2017-Nov-17 01:54N 40°36' W 074°12'0 0.0
2017-Nov-17 01:30N 40°36' W 074°12'0 0.0
2017-Nov-17 00:54N 40°36' W 074°12'0 0.1
2017-Nov-16 23:50N 40°36' W 074°12'0 0.5
2017-Nov-16 23:30N 40°36' W 074°12'1 2.3
2017-Nov-16 23:00N 40°37' W 074°12'3 5.9
2017-Nov-16 22:29N 40°39' W 074°09'4 7.7
2017-Nov-16 22:00N 40°39' W 074°04'1 1.9
2017-Nov-16 21:30N 40°39' W 074°03'0 0.3
2017-Nov-16 21:00N 40°39' W 074°03'1 2.2
2017-Nov-16 20:30N 40°39' W 074°02'4 7.0
2017-Nov-16 20:00N 40°42' W 073°59'4 8.1
2017-Nov-16 19:30N 40°46' W 073°57'3 6.8
2017-Nov-16 19:00N 40°48' W 073°53'3 5.3
2017-Nov-16 18:30N 40°48' W 073°50'2 4.3
2017-Nov-16 18:00N 40°49' W 073°47'2 4.7
2017-Nov-16 17:29N 40°51' W 073°45'2 4.8
2017-Nov-16 17:00N 40°53' W 073°43'4 6.1
2017-Nov-16 16:23N 40°55' W 073°39'44 7.3
2017-Nov-16 10:21N 41°06' W 072°43'411.2
2017-Nov-16 10:00N 41°07' W 072°38'611.4
2017-Nov-16 09:30N 41°09' W 072°30'510.8
2017-Nov-16 09:00N 41°10' W 072°24'510.1
2017-Nov-16 08:30N 41°12' W 072°17'5 9.4
2017-Nov-16 08:00N 41°14' W 072°11'93 6.3
2017-Nov-15 17:15N 42°11' W 070°34'2 7.6
2017-Nov-15 17:00N 42°12' W 070°35'4 7.1
2017-Nov-15 16:30N 42°15' W 070°38'4 8.3
2017-Nov-15 16:00N 42°18' W 070°42'4 8.1
2017-Nov-15 15:30N 42°19' W 070°48'4 7.9
2017-Nov-15 15:00N 42°19' W 070°53'4 6.8
2017-Nov-15 14:26N 42°16' W 070°56'2 4.6
2017-Nov-15 13:55N 42°14' W 070°58'0 0.0
2017-Nov-15 11:03N 42°14' W 070°58'0 0.0
2017-Nov-15 10:51N 42°14' W 070°58'0 0.0
2017-Nov-15 05:51N 42°14' W 070°58'0 0.0
2017-Nov-15 05:12N 42°14' W 070°58'0 0.0
2017-Nov-15 04:39N 42°14' W 070°58'0 0.0
2017-Nov-15 04:24N 42°14' W 070°58'0 0.0
2017-Nov-15 03:57N 42°14' W 070°58'0 0.0
2017-Nov-15 03:30N 42°14' W 070°58'0 0.0
2017-Nov-15 02:57N 42°14' W 070°58'0 0.0
2017-Nov-15 01:21N 42°14' W 070°58'0 0.0
2017-Nov-14 23:33N 42°14' W 070°58'0 0.0
2017-Nov-14 23:30N 42°14' W 070°58'0 0.0
2017-Nov-14 15:32N 42°14' W 070°58'0 0.0
2017-Nov-14 15:27N 42°14' W 070°58'0 0.0
2017-Nov-14 14:48N 42°14' W 070°58'0 0.0
2017-Nov-14 14:30N 42°14' W 070°58'3 2.1
2017-Nov-14 13:12N 42°16' W 070°56'1 3.8
2017-Nov-14 13:00N 42°17' W 070°56'4 4.3
2017-Nov-14 12:07N 42°19' W 070°52'1 4.8
2017-Nov-14 11:50N 42°20' W 070°50'3 7.8
2017-Nov-14 11:30N 42°22' W 070°51'4 7.3
2017-Nov-14 11:01N 42°22' W 070°55'3 4.8
2017-Nov-14 10:28N 42°20' W 070°59'0 0.0
2017-Nov-14 09:49N 42°20' W 070°59'0 0.2
2017-Nov-14 09:13N 42°20' W 070°59'0 0.0
2017-Nov-14 08:58N 42°20' W 070°59'0 0.0
2017-Nov-14 08:25N 42°20' W 070°59'0 0.0
2017-Nov-14 07:58N 42°20' W 070°59'0 0.1
2017-Nov-14 07:28N 42°20' W 070°59'0 0.1
2017-Nov-14 06:22N 42°20' W 070°58'0 0.1
2017-Nov-14 05:58N 42°20' W 070°58'0 0.0
2017-Nov-14 05:07N 42°20' W 070°58'0 0.0
2017-Nov-14 04:55N 42°20' W 070°58'0 0.0
2017-Nov-14 02:49N 42°20' W 070°58'0 0.1
2017-Nov-14 02:28N 42°20' W 070°58'0 0.0
2017-Nov-14 01:55N 42°20' W 070°58'0 0.0
2017-Nov-14 01:26N 42°20' W 070°58'0 0.0
2017-Nov-14 01:00N 42°20' W 070°58'0 0.0
2017-Nov-14 00:29N 42°20' W 070°59'0 0.0
2017-Nov-14 00:00N 42°20' W 070°59'1 0.8
2017-Nov-13 23:16N 42°20' W 070°58'1 5.5
2017-Nov-13 23:00N 42°21' W 070°56'3 6.4
2017-Nov-13 22:28N 42°23' W 070°52'4 8.6
2017-Nov-13 22:00N 42°21' W 070°48'159 7.0
2017-Nov-12 23:15N 40°52' W 073°44'2 9.3
2017-Nov-12 23:00N 40°50' W 073°46'3 6.9
2017-Nov-12 22:30N 40°48' W 073°50'4 8.4
2017-Nov-12 22:00N 40°47' W 073°55'5 9.2
2017-Nov-12 21:30N 40°43' W 073°58'5 9.4
2017-Nov-12 21:01N 40°40' W 074°03'1 1.9
2017-Nov-12 20:29N 40°39' W 074°03'0 0.0
2017-Nov-12 19:59N 40°39' W 074°03'0 0.0
2017-Nov-12 19:29N 40°39' W 074°03'0 0.0
2017-Nov-12 19:01N 40°39' W 074°03'0 0.2
2017-Nov-12 18:30N 40°39' W 074°03'0 0.1
2017-Nov-12 18:01N 40°39' W 074°03'0 0.3
2017-Nov-12 17:30N 40°39' W 074°03'3 6.4
2017-Nov-12 17:00N 40°39' W 074°07'3 6.3
2017-Nov-12 16:30N 40°38' W 074°11'1 2.2
2017-Nov-12 16:00N 40°38' W 074°12'0 0.0
2017-Nov-12 15:29N 40°38' W 074°12'0 0.0
2017-Nov-12 14:29N 40°38' W 074°12'0 0.0
2017-Nov-12 13:56N 40°38' W 074°12'0 0.0
2017-Nov-12 13:30N 40°38' W 074°12'0 0.0
2017-Nov-12 13:00N 40°38' W 074°12'0 0.0
2017-Nov-12 12:27N 40°38' W 074°12'0 0.0
2017-Nov-12 11:57N 40°38' W 074°12'0 0.0
2017-Nov-12 11:29N 40°38' W 074°12'0 0.0
2017-Nov-12 10:59N 40°38' W 074°12'0 0.0
2017-Nov-12 10:20N 40°38' W 074°12'0 0.0
2017-Nov-12 10:00N 40°38' W 074°12'0 0.0
2017-Nov-12 09:17N 40°38' W 074°12'0 0.0
2017-Nov-12 08:57N 40°38' W 074°12'0 0.0
2017-Nov-12 08:29N 40°38' W 074°12'0 0.0
2017-Nov-12 08:00N 40°38' W 074°12'0 0.0
2017-Nov-12 07:29N 40°38' W 074°12'0 0.0
2017-Nov-12 07:00N 40°38' W 074°12'0 0.0
2017-Nov-12 06:23N 40°38' W 074°12'0 0.0
2017-Nov-12 05:53N 40°38' W 074°12'0 0.0
2017-Nov-12 04:35N 40°38' W 074°12'0 0.0
2017-Nov-12 04:23N 40°38' W 074°12'0 0.0
2017-Nov-12 03:59N 40°38' W 074°12'0 0.0
2017-Nov-12 03:29N 40°38' W 074°12'0 0.0
2017-Nov-12 02:59N 40°38' W 074°12'0 0.0
2017-Nov-12 02:26N 40°38' W 074°12'0 0.0
2017-Nov-12 01:56N 40°38' W 074°12'0 0.0
2017-Nov-12 01:24N 40°38' W 074°12'0 0.0
2017-Nov-12 00:54N 40°38' W 074°12'0 0.0
2017-Nov-12 00:29N 40°38' W 074°12'0 0.0
2017-Nov-12 00:00N 40°38' W 074°12'0 0.0
2017-Nov-11 23:29N 40°38' W 074°12'0 0.0
2017-Nov-11 22:53N 40°38' W 074°12'0 0.0
2017-Nov-11 22:29N 40°38' W 074°12'0 0.0
2017-Nov-11 21:59N 40°38' W 074°12'0 0.0
2017-Nov-11 21:29N 40°38' W 074°12'0 0.0
2017-Nov-11 20:53N 40°38' W 074°12'0 0.0
2017-Nov-11 16:17N 40°38' W 074°12'0 0.0
2017-Nov-11 15:59N 40°38' W 074°12'0 0.0
2017-Nov-11 15:23N 40°38' W 074°12'0 0.0
2017-Nov-11 14:59N 40°38' W 074°12'0 0.0
2017-Nov-11 14:29N 40°38' W 074°12'0 0.0
2017-Nov-11 13:59N 40°38' W 074°12'0 0.0
2017-Nov-11 13:17N 40°38' W 074°12'0 0.0
2017-Nov-11 11:38N 40°38' W 074°12'0 0.0
2017-Nov-11 10:08N 40°38' W 074°12'0 0.0
2017-Nov-11 09:56N 40°38' W 074°12'0 0.0
2017-Nov-11 09:26N 40°38' W 074°12'0 0.0
2017-Nov-11 08:56N 40°38' W 074°12'0 0.0
2017-Nov-11 07:53N 40°38' W 074°12'0 0.0
2017-Nov-11 07:29N 40°38' W 074°12'0 0.0
2017-Nov-11 06:59N 40°38' W 074°12'0 0.0
2017-Nov-11 06:23N 40°38' W 074°12'0 0.0
2017-Nov-11 06:00N 40°38' W 074°12'0 0.0
2017-Nov-11 05:30N 40°38' W 074°12'0 0.0
2017-Nov-11 04:59N 40°38' W 074°12'0 0.1
2017-Nov-11 04:30N 40°38' W 074°12'0 0.0
2017-Nov-11 04:00N 40°38' W 074°12'1 1.8
2017-Nov-11 03:30N 40°38' W 074°12'3 6.4
2017-Nov-11 03:00N 40°39' W 074°07'3 6.4
2017-Nov-11 02:30N 40°38' W 074°03'2 4.8
2017-Nov-11 02:00N 40°36' W 074°02'1 2.3
2017-Nov-11 01:30N 40°35' W 074°01'0 0.0
2017-Nov-11 00:57N 40°35' W 074°01'0 0.0
2017-Nov-11 00:30N 40°35' W 074°01'0 0.0
2017-Nov-11 00:00N 40°35' W 074°01'0 0.0
2017-Nov-10 23:27N 40°35' W 074°01'0 0.0
2017-Nov-10 23:00N 40°35' W 074°01'0 0.0
2017-Nov-10 22:30N 40°35' W 074°01'0 0.0
2017-Nov-10 21:57N 40°35' W 074°01'0 0.0
2017-Nov-10 21:30N 40°35' W 074°01'0 0.0
2017-Nov-10 21:00N 40°35' W 074°01'0 0.1
2017-Nov-10 20:31N 40°35' W 074°01'0 0.0
2017-Nov-10 20:01N 40°35' W 074°01'1 2.5
2017-Nov-10 19:31N 40°36' W 074°02'4 8.1
2017-Nov-10 19:00N 40°39' W 074°06'2 4.4
2017-Nov-10 18:28N 40°38' W 074°09'0 0.0
2017-Nov-10 17:52N 40°38' W 074°09'0 0.0
2017-Nov-10 17:25N 40°38' W 074°09'0 0.0
2017-Nov-10 16:58N 40°38' W 074°09'0 0.0
2017-Nov-10 16:28N 40°38' W 074°09'0 0.0
2017-Nov-10 15:55N 40°38' W 074°09'0 0.0
2017-Nov-10 15:25N 40°38' W 074°09'0 0.0
2017-Nov-10 14:58N 40°38' W 074°09'0 0.0
2017-Nov-10 14:28N 40°38' W 074°09'0 0.0
2017-Nov-10 13:58N 40°38' W 074°09'0 0.0
2017-Nov-10 13:28N 40°38' W 074°09'0 0.0
2017-Nov-10 12:58N 40°38' W 074°09'0 0.0
2017-Nov-10 12:25N 40°38' W 074°09'0 0.0
2017-Nov-10 11:58N 40°38' W 074°09'0 0.0
2017-Nov-10 11:28N 40°38' W 074°09'0 0.0
2017-Nov-10 10:55N 40°38' W 074°09'0 0.0
2017-Nov-10 10:25N 40°38' W 074°09'0 0.0
2017-Nov-10 09:58N 40°38' W 074°09'0 0.0
2017-Nov-10 09:28N 40°38' W 074°09'0 0.0
2017-Nov-10 08:58N 40°38' W 074°09'0 0.0
2017-Nov-10 08:28N 40°38' W 074°09'0 0.0
2017-Nov-10 07:58N 40°38' W 074°09'0 0.0
2017-Nov-10 07:28N 40°38' W 074°09'0 0.0
2017-Nov-10 06:58N 40°38' W 074°09'0 0.0
2017-Nov-10 06:28N 40°38' W 074°09'0 0.0
2017-Nov-10 05:58N 40°38' W 074°09'0 0.0
2017-Nov-10 05:28N 40°38' W 074°09'0 0.0
2017-Nov-10 04:58N 40°38' W 074°09'0 0.0
2017-Nov-10 04:28N 40°38' W 074°09'0 0.0
2017-Nov-10 03:58N 40°38' W 074°09'0 0.0
2017-Nov-10 03:28N 40°38' W 074°09'0 0.0
2017-Nov-10 02:58N 40°38' W 074°09'0 0.0
2017-Nov-10 02:28N 40°38' W 074°09'0 0.0
2017-Nov-10 01:58N 40°38' W 074°09'0 0.0
2017-Nov-10 01:28N 40°38' W 074°09'0 0.0
2017-Nov-10 00:58N 40°38' W 074°09'0 0.0
2017-Nov-10 00:28N 40°38' W 074°09'0 0.0
2017-Nov-09 23:55N 40°38' W 074°09'0 0.0
2017-Nov-09 23:28N 40°38' W 074°09'1 2.8
2017-Nov-09 23:00N 40°39' W 074°08'4 7.3
2017-Nov-09 22:30N 40°38' W 074°03'3 4.7
2017-Nov-09 21:58N 40°36' W 074°01'0 0.0
2017-Nov-09 21:28N 40°36' W 074°01'0 0.0
2017-Nov-09 20:58N 40°36' W 074°01'0 0.0
2017-Nov-09 20:28N 40°36' W 074°01'0 0.3
2017-Nov-09 20:00N 40°36' W 074°02'3 6.3
2017-Nov-09 19:30N 40°39' W 074°02'4 8.3
2017-Nov-09 19:00N 40°42' W 073°59'4 7.8
2017-Nov-09 18:30N 40°46' W 073°57'3 5.0
2017-Nov-09 17:59N 40°48' W 073°55'2 3.3
2017-Nov-09 17:30N 40°48' W 073°53'  

Dump ship's entire track history